createdAt,value
2023-05-16T00:04:56.267Z,99.64
2023-05-16T00:12:33.019Z,100.00
2023-05-16T00:20:10.060Z,100.00
2023-05-16T00:27:45.509Z,100.00
2023-05-16T00:35:19.180Z,100.00
2023-05-16T00:42:54.824Z,100.00
2023-05-16T00:50:28.991Z,100.00
2023-05-16T00:58:04.966Z,100.00
2023-05-16T01:05:38.706Z,100.00
2023-05-16T01:13:23.832Z,100.00
2023-05-16T01:21:03.956Z,100.00
2023-05-16T01:28:40.534Z,100.00
2023-05-16T01:36:22.191Z,100.00
2023-05-16T01:44:02.553Z,100.00
2023-05-16T01:51:41.855Z,100.00
2023-05-16T01:59:17.598Z,100.00
2023-05-16T02:06:51.908Z,100.00
2023-05-16T02:14:27.144Z,100.00
2023-05-16T02:22:00.893Z,100.00
2023-05-16T02:29:36.039Z,100.00
2023-05-16T02:37:12.518Z,100.00
2023-05-16T02:44:48.824Z,100.00
2023-05-16T02:52:22.689Z,100.00
2023-05-16T02:59:57.814Z,100.00
2023-05-16T03:07:32.029Z,100.00
2023-05-16T03:15:09.427Z,100.00
2023-05-16T03:22:45.331Z,100.00
2023-05-16T03:30:20.843Z,100.00
2023-05-16T03:37:54.923Z,100.00
2023-05-16T03:45:30.697Z,100.00
2023-05-16T03:53:04.755Z,100.00
2023-05-16T04:00:40.052Z,100.00
2023-05-16T04:08:13.937Z,100.00
2023-05-16T04:15:49.486Z,100.00
2023-05-16T04:23:23.162Z,100.00
2023-05-16T04:30:58.245Z,100.00
2023-05-16T04:38:31.974Z,100.00
2023-05-16T04:46:07.551Z,100.00
2023-05-16T04:53:41.280Z,100.00
2023-05-16T05:01:17.020Z,100.00
2023-05-16T05:08:50.914Z,100.00
2023-05-16T05:16:26.415Z,100.00
2023-05-16T05:24:00.269Z,100.00
2023-05-16T05:47:21.805Z,100.00
2023-05-16T05:54:55.825Z,100.00
2023-05-16T06:02:31.565Z,100.00
2023-05-16T06:10:06.925Z,100.00
2023-05-16T06:17:42.534Z,94.44
2023-05-16T06:33:09.368Z,95.03
2023-05-16T06:40:43.354Z,90.42
2023-05-16T06:48:20.335Z,86.98
2023-05-16T06:55:54.237Z,87.13
2023-05-16T07:03:31.181Z,86.02
2023-05-16T07:11:05.068Z,86.48
2023-05-16T07:18:40.234Z,88.66
2023-05-16T07:26:14.087Z,85.14
2023-05-16T07:33:49.409Z,84.42
2023-05-16T07:41:25.476Z,80.99
2023-05-16T07:49:00.780Z,80.76
2023-05-16T07:56:34.737Z,81.67
2023-05-16T08:04:09.853Z,81.70
2023-05-16T08:11:45.402Z,79.98
2023-05-16T08:19:20.864Z,78.84
2023-05-16T08:26:54.702Z,80.45
2023-05-16T08:34:31.869Z,79.63
2023-05-16T08:42:06.516Z,80.17
2023-05-16T08:49:42.536Z,79.65
2023-05-16T08:57:18.107Z,80.72
2023-05-16T09:04:54.355Z,82.97
2023-05-16T09:12:28.200Z,82.21
2023-05-16T09:20:10.106Z,82.77
2023-05-16T09:27:43.854Z,82.42
2023-05-16T09:36:10.420Z,82.24
2023-05-16T09:43:46.079Z,80.01
2023-05-16T09:51:23.234Z,75.34
2023-05-16T09:58:58.374Z,73.49
2023-05-16T10:06:32.668Z,73.64
2023-05-16T10:14:08.894Z,72.63
2023-05-16T10:21:47.451Z,71.45
2023-05-16T10:29:23.801Z,69.10
2023-05-16T10:36:58.145Z,67.75
2023-05-16T10:44:34.947Z,65.71
2023-05-16T10:52:10.735Z,67.23
2023-05-16T10:59:47.170Z,65.55
2023-05-16T11:07:22.872Z,63.49
2023-05-16T11:14:59.483Z,62.66
2023-05-16T11:22:34.290Z,61.37
2023-05-16T11:30:15.949Z,60.85
2023-05-16T11:37:52.992Z,60.57
2023-05-16T11:45:28.425Z,58.91
2023-05-16T11:53:02.481Z,62.55
2023-05-16T12:00:37.708Z,55.66
2023-05-16T12:17:06.700Z,53.58
2023-05-16T12:24:41.892Z,54.02
2023-05-16T12:32:19.485Z,52.27
2023-05-16T12:39:53.419Z,51.82
2023-05-16T12:47:38.153Z,49.71
2023-05-16T12:55:12.247Z,44.99
2023-05-16T13:02:48.569Z,44.74
2023-05-16T13:10:22.895Z,44.69
2023-05-16T13:17:58.140Z,45.74
2023-05-16T13:25:32.652Z,42.58
2023-05-16T13:33:07.891Z,42.38
2023-05-16T13:40:44.897Z,42.62
2023-05-16T13:48:20.129Z,41.89
2023-05-16T13:55:54.358Z,41.79
2023-05-16T14:03:29.608Z,41.78
2023-05-16T14:11:03.511Z,40.95
2023-05-16T14:18:38.666Z,40.37
2023-05-16T14:26:12.392Z,37.15
2023-05-16T14:33:47.529Z,38.15
2023-05-16T14:41:21.375Z,37.68
2023-05-16T14:48:56.452Z,38.08
2023-05-16T14:56:30.418Z,37.39
2023-05-16T15:12:59.281Z,34.63
2023-05-16T15:20:33.285Z,34.38
2023-05-16T15:28:08.518Z,33.61
2023-05-16T15:35:42.315Z,32.96
2023-05-16T15:43:18.986Z,31.63
2023-05-16T15:51:12.424Z,32.66
2023-05-16T15:58:49.921Z,31.50
2023-05-16T16:06:23.906Z,32.33
2023-05-16T16:13:59.420Z,32.33
2023-05-16T16:21:33.975Z,32.91
2023-05-16T16:29:09.091Z,32.63
2023-05-16T16:36:42.693Z,32.27
2023-05-16T16:44:18.059Z,32.84
2023-05-16T16:51:52.092Z,32.53
2023-05-16T16:59:27.485Z,33.47
2023-05-16T17:07:01.294Z,32.67
2023-05-16T17:14:36.584Z,32.83
2023-05-16T17:22:10.575Z,34.11
2023-05-16T17:29:45.864Z,34.97
2023-05-16T17:37:20.662Z,35.05
2023-05-16T17:45:11.430Z,34.94
2023-05-16T17:53:03.126Z,34.62
2023-05-16T18:00:39.952Z,34.56
2023-05-16T18:08:13.817Z,35.37
2023-05-16T18:15:49.689Z,35.82
2023-05-16T18:23:24.771Z,36.12
2023-05-16T18:30:59.973Z,36.45
2023-05-16T18:38:34.041Z,37.40
2023-05-16T18:46:09.359Z,38.10
2023-05-16T18:53:43.168Z,38.89
2023-05-16T19:01:22.167Z,39.40
2023-05-16T19:08:56.089Z,39.33
2023-05-16T19:16:31.411Z,39.86
2023-05-16T19:24:06.513Z,40.33
2023-05-16T19:31:41.613Z,40.53
2023-05-16T19:39:15.463Z,40.48
2023-05-16T19:46:50.727Z,40.26
2023-05-16T19:54:31.357Z,40.90
2023-05-16T20:02:06.723Z,40.97
2023-05-16T20:09:40.623Z,41.35
2023-05-16T20:17:16.074Z,41.86
2023-05-16T20:24:49.925Z,42.24
2023-05-16T20:32:25.360Z,42.56
2023-05-16T20:39:59.232Z,42.58
2023-05-16T20:47:34.761Z,42.82
2023-05-16T20:55:09.287Z,43.09
2023-05-16T21:02:44.557Z,43.74
2023-05-16T21:10:18.539Z,43.98
2023-05-16T21:17:54.019Z,44.53
2023-05-16T21:25:28.916Z,44.71
2023-05-16T21:33:04.480Z,44.83
2023-05-16T21:40:38.734Z,45.27
2023-05-16T21:48:14.206Z,45.54
2023-05-16T21:55:48.163Z,45.88
2023-05-16T22:03:24.240Z,46.68
2023-05-16T22:10:58.369Z,46.88
2023-05-16T22:18:34.222Z,47.08
2023-05-16T22:26:08.370Z,47.29
2023-05-16T22:33:43.786Z,47.90
2023-05-16T22:41:17.991Z,47.98
2023-05-16T22:48:53.334Z,48.61
2023-05-16T22:56:27.245Z,48.64
2023-05-16T23:04:02.986Z,49.06
2023-05-16T23:11:36.925Z,50.15
2023-05-16T23:19:12.260Z,50.88
2023-05-16T23:26:46.171Z,51.67
2023-05-16T23:34:21.264Z,52.62
2023-05-16T23:41:55.166Z,54.33
2023-05-16T23:49:30.484Z,55.42
2023-05-16T23:57:04.436Z,57.30
